createdAt,value
2023-01-12T00:01:38.278Z,5.82
2023-01-12T00:04:23.756Z,5.90
2023-01-12T00:07:11.709Z,6.45
2023-01-12T00:09:59.975Z,7.13
2023-01-12T00:12:45.485Z,6.30
2023-01-12T00:15:54.494Z,6.50
2023-01-12T00:18:46.142Z,7.07
2023-01-12T00:21:35.736Z,9.43
2023-01-12T00:24:21.985Z,10.35
2023-01-12T00:27:10.113Z,9.15
2023-01-12T00:29:55.338Z,8.25
2023-01-12T00:32:40.901Z,8.38
2023-01-12T00:35:26.232Z,9.25
2023-01-12T00:38:16.459Z,9.48
2023-01-12T00:41:33.180Z,8.00
2023-01-12T00:44:36.851Z,10.32
2023-01-12T00:47:22.249Z,9.73
2023-01-12T00:50:12.740Z,11.10
2023-01-12T00:52:58.338Z,11.40
2023-01-12T00:55:46.149Z,11.75
2023-01-12T00:58:37.054Z,12.52
2023-01-12T01:01:23.025Z,11.55
2023-01-12T01:04:08.836Z,12.70
2023-01-12T01:06:54.149Z,11.40
2023-01-12T01:09:44.325Z,12.27
2023-01-12T01:12:30.277Z,12.57
2023-01-12T01:15:15.739Z,12.63
2023-01-12T01:18:02.297Z,12.68
2023-01-12T01:20:48.005Z,12.35
2023-01-12T01:23:35.751Z,11.90
2023-01-12T01:26:23.164Z,11.35
2023-01-12T01:29:09.263Z,11.68
2023-01-12T01:31:57.778Z,13.05
2023-01-12T01:34:46.358Z,10.88
2023-01-12T01:37:34.226Z,10.82
2023-01-12T01:40:19.805Z,8.40
2023-01-12T01:43:05.472Z,9.23
2023-01-12T01:46:03.516Z,7.40
2023-01-12T01:48:52.186Z,9.43
2023-01-12T01:51:41.362Z,7.03
2023-01-12T01:54:33.624Z,5.93
2023-01-12T01:57:20.641Z,6.05
2023-01-12T02:00:07.497Z,6.18
2023-01-12T02:02:54.298Z,6.22
2023-01-12T02:05:42.848Z,6.25
2023-01-12T02:08:34.645Z,5.00
2023-01-12T02:11:40.125Z,4.93
2023-01-12T02:14:44.021Z,5.35
2023-01-12T02:17:48.643Z,5.47
2023-01-12T02:21:03.425Z,5.50
2023-01-12T02:24:07.813Z,4.53
2023-01-12T02:26:55.919Z,5.07
2023-01-12T02:30:05.607Z,5.35
2023-01-12T02:33:08.879Z,5.95
2023-01-12T02:36:23.308Z,5.30
2023-01-12T02:39:32.446Z,6.03
2023-01-12T02:42:42.755Z,7.05
2023-01-12T02:45:50.783Z,7.50
2023-01-12T02:48:54.694Z,6.72
2023-01-12T02:51:54.742Z,5.60
2023-01-12T02:54:48.026Z,6.40
2023-01-12T02:57:40.354Z,5.45
2023-01-12T03:00:27.012Z,6.97
2023-01-12T03:03:13.002Z,7.25
2023-01-12T03:05:59.741Z,6.97
2023-01-12T03:08:47.681Z,6.80
2023-01-12T03:11:36.020Z,6.53
2023-01-12T03:14:22.931Z,6.68
2023-01-12T03:17:20.852Z,7.22
2023-01-12T03:20:28.988Z,8.70
2023-01-12T03:23:32.887Z,6.60
2023-01-12T03:26:23.313Z,6.93
2023-01-12T03:29:37.888Z,7.85
2023-01-12T03:32:25.790Z,9.00
2023-01-12T03:35:12.622Z,8.13
2023-01-12T03:38:05.932Z,7.22
2023-01-12T03:41:01.560Z,8.95
2023-01-12T03:43:57.516Z,6.85
2023-01-12T03:46:52.169Z,6.18
2023-01-12T03:50:18.082Z,5.82
2023-01-12T03:53:06.796Z,6.15
2023-01-12T03:55:58.553Z,5.75
2023-01-12T03:58:44.737Z,5.57
2023-01-12T04:01:31.210Z,5.85
2023-01-12T04:04:16.796Z,5.05
2023-01-12T04:07:02.349Z,4.85
2023-01-12T04:09:47.880Z,4.53
2023-01-12T04:12:33.160Z,4.30
2023-01-12T04:15:21.714Z,3.70
2023-01-12T04:18:08.213Z,3.58
2023-01-12T04:20:53.814Z,3.95
2023-01-12T04:23:41.302Z,3.30
2023-01-12T04:26:28.055Z,3.20
2023-01-12T04:29:13.557Z,3.97
2023-01-12T04:32:08.352Z,3.65
2023-01-12T04:34:53.754Z,4.22
2023-01-12T04:37:40.250Z,3.38
2023-01-12T04:40:26.113Z,3.47
2023-01-12T04:43:13.466Z,3.13
2023-01-12T04:46:01.733Z,5.28
2023-01-12T04:48:49.717Z,4.80
2023-01-12T04:51:37.556Z,2.97
2023-01-12T04:54:25.788Z,3.50
2023-01-12T04:57:12.303Z,3.80
2023-01-12T05:00:05.480Z,3.90
2023-01-12T05:03:02.256Z,3.08
2023-01-12T05:05:50.145Z,3.55
2023-01-12T05:08:54.054Z,3.45
2023-01-12T05:11:39.736Z,3.60
2023-01-12T05:14:26.281Z,4.10
2023-01-12T05:17:11.707Z,3.47
2023-01-12T05:19:58.534Z,3.25
2023-01-12T05:22:45.273Z,3.13
2023-01-12T05:25:33.724Z,3.45
2023-01-12T05:28:19.347Z,3.10
2023-01-12T05:31:09.180Z,2.50
2023-01-12T05:33:55.207Z,2.50
2023-01-12T05:36:40.722Z,2.90
2023-01-12T05:39:26.146Z,1.88
2023-01-12T05:42:30.028Z,2.50
2023-01-12T05:45:19.359Z,1.60
2023-01-12T05:48:05.317Z,2.28
2023-01-12T05:50:50.994Z,2.10
2023-01-12T05:53:36.623Z,2.38
2023-01-12T05:56:27.469Z,2.53
2023-01-12T05:59:15.263Z,3.80
2023-01-12T06:02:00.824Z,2.15
2023-01-12T06:04:46.417Z,2.97
2023-01-12T06:07:32.300Z,2.72
2023-01-12T06:10:18.116Z,3.08
2023-01-12T06:13:25.140Z,4.03
2023-01-12T06:16:10.559Z,3.40
2023-01-12T06:18:56.493Z,3.53
2023-01-12T06:21:41.986Z,3.58
2023-01-12T06:24:28.677Z,4.28
2023-01-12T06:27:13.928Z,4.05
2023-01-12T06:29:59.548Z,4.68
2023-01-12T06:32:44.772Z,5.03
2023-01-12T06:35:30.072Z,7.50
2023-01-12T06:38:20.492Z,5.32
2023-01-12T06:41:45.371Z,5.18
2023-01-12T06:44:31.143Z,5.75
2023-01-12T06:47:16.500Z,5.25
2023-01-12T06:50:01.918Z,4.68
2023-01-12T06:52:47.044Z,6.53
2023-01-12T06:55:33.089Z,5.43
2023-01-12T06:58:19.089Z,5.45
2023-01-12T07:01:05.055Z,6.22
2023-01-12T07:03:50.780Z,5.90
2023-01-12T07:06:48.432Z,6.53
2023-01-12T07:09:36.922Z,5.47
2023-01-12T07:12:22.634Z,5.80
2023-01-12T07:15:08.952Z,5.30
2023-01-12T07:17:57.737Z,5.25
2023-01-12T07:20:46.030Z,5.63
2023-01-12T07:23:31.565Z,7.07
2023-01-12T07:26:17.546Z,6.65
2023-01-12T07:29:03.187Z,7.13
2023-01-12T07:31:55.477Z,6.65
2023-01-12T07:34:40.752Z,7.03
2023-01-12T07:37:26.286Z,5.60
2023-01-12T07:40:12.113Z,5.80
2023-01-12T07:43:02.005Z,8.55
2023-01-12T07:45:48.429Z,8.50
2023-01-12T07:48:35.146Z,5.90
2023-01-12T07:51:20.428Z,7.75
2023-01-12T07:54:06.349Z,6.85
2023-01-12T07:56:51.843Z,7.53
2023-01-12T07:59:40.864Z,7.13
2023-01-12T08:02:26.575Z,6.28
2023-01-12T08:05:14.776Z,6.45
2023-01-12T08:08:02.044Z,6.28
2023-01-12T08:10:50.545Z,7.10
2023-01-12T08:13:38.101Z,7.55
2023-01-12T08:16:32.146Z,6.65
2023-01-12T08:19:25.310Z,6.22
2023-01-12T08:22:16.012Z,6.50
2023-01-12T08:25:14.659Z,7.57
2023-01-12T08:28:04.106Z,7.60
2023-01-12T08:30:50.620Z,6.50
2023-01-12T08:33:40.019Z,6.90
2023-01-12T08:36:28.493Z,5.55
2023-01-12T08:39:15.182Z,7.57
2023-01-12T08:42:01.292Z,7.43
2023-01-12T08:44:46.691Z,8.00
2023-01-12T08:47:32.422Z,8.35
2023-01-12T08:50:17.772Z,9.55
2023-01-12T08:53:02.945Z,6.97
2023-01-12T08:55:55.950Z,8.70
2023-01-12T08:58:43.095Z,8.25
2023-01-12T09:01:29.008Z,8.23
2023-01-12T09:04:14.859Z,7.60
2023-01-12T09:07:00.292Z,8.35
2023-01-12T09:09:46.123Z,10.07
2023-01-12T09:12:31.569Z,8.55
2023-01-12T09:15:17.283Z,8.85
2023-01-12T09:18:02.600Z,7.95
2023-01-12T09:20:48.266Z,7.72
2023-01-12T09:23:34.273Z,10.07
2023-01-12T09:26:25.971Z,8.10
2023-01-12T09:29:12.714Z,9.80
2023-01-12T09:31:58.376Z,10.60
2023-01-12T09:34:43.809Z,8.68
2023-01-12T09:37:29.908Z,9.55
2023-01-12T09:40:19.316Z,9.48
2023-01-12T09:43:22.960Z,8.90
2023-01-12T09:46:36.324Z,9.32
2023-01-12T09:49:27.184Z,9.60
2023-01-12T09:52:26.786Z,6.72
2023-01-12T09:55:28.163Z,7.93
2023-01-12T09:58:40.131Z,6.97
2023-01-12T10:01:29.538Z,8.00
2023-01-12T10:04:15.737Z,8.05
2023-01-12T10:07:01.860Z,7.80
2023-01-12T10:09:48.845Z,6.63
2023-01-12T10:12:50.820Z,6.78
2023-01-12T10:15:46.369Z,8.23
2023-01-12T10:18:41.382Z,8.48
2023-01-12T10:21:29.590Z,8.23
2023-01-12T10:24:14.848Z,8.32
2023-01-12T10:27:03.280Z,6.80
2023-01-12T10:29:48.735Z,8.63
2023-01-12T10:32:41.892Z,6.82
2023-01-12T10:35:32.469Z,6.35
2023-01-12T10:38:46.828Z,5.57
2023-01-12T10:41:37.772Z,7.85
2023-01-12T10:44:23.358Z,8.98
2023-01-12T10:47:11.365Z,7.03
2023-01-12T10:50:21.826Z,5.32
2023-01-12T10:53:15.792Z,6.35
2023-01-12T10:56:10.262Z,7.32
2023-01-12T10:59:20.034Z,6.20
2023-01-12T11:02:07.604Z,7.25
2023-01-12T11:04:57.016Z,7.00
2023-01-12T11:07:51.698Z,6.07
2023-01-12T11:10:37.708Z,6.93
2023-01-12T11:13:26.599Z,6.80
2023-01-12T11:16:25.103Z,8.02
2023-01-12T11:19:42.285Z,6.68
2023-01-12T11:22:34.141Z,6.22
2023-01-12T11:25:29.441Z,5.93
2023-01-12T11:28:29.352Z,6.78
2023-01-12T11:31:26.918Z,6.28
2023-01-12T11:34:23.653Z,5.32
2023-01-12T11:37:14.381Z,7.05
2023-01-12T11:40:37.735Z,6.43
2023-01-12T11:43:51.594Z,8.32
2023-01-12T11:46:40.568Z,7.50
2023-01-12T11:49:38.083Z,7.65
2023-01-12T11:52:26.568Z,7.47
2023-01-12T11:55:19.645Z,5.68
2023-01-12T11:58:35.170Z,6.97
2023-01-12T12:01:30.017Z,6.80
2023-01-12T12:04:24.888Z,6.07
2023-01-12T12:07:43.389Z,5.80
2023-01-12T12:10:44.000Z,7.13
2023-01-12T12:13:53.651Z,5.88
2023-01-12T12:17:15.812Z,5.55
2023-01-12T12:20:34.431Z,4.28
2023-01-12T12:23:30.596Z,5.30
2023-01-12T12:26:26.209Z,5.45
2023-01-12T12:29:33.288Z,4.30
2023-01-12T12:32:21.683Z,2.83
2023-01-12T12:35:41.297Z,3.35
2023-01-12T12:39:09.981Z,2.55
2023-01-12T12:42:33.077Z,2.47
2023-01-12T12:45:53.686Z,2.50
2023-01-12T12:48:41.991Z,1.98
2023-01-12T12:51:31.447Z,2.72
2023-01-12T12:54:24.922Z,1.90
2023-01-12T12:57:10.467Z,2.75
2023-01-12T13:00:02.254Z,2.83
2023-01-12T13:02:55.367Z,1.75
2023-01-12T13:05:43.167Z,2.00
2023-01-12T13:08:35.441Z,1.70
2023-01-12T13:11:42.342Z,1.15
2023-01-12T13:14:30.426Z,1.52
2023-01-12T13:17:19.025Z,1.77
2023-01-12T13:20:16.589Z,1.48
2023-01-12T13:23:49.447Z,1.90
2023-01-12T13:26:38.299Z,1.73
2023-01-12T13:29:29.557Z,1.33
2023-01-12T13:32:33.853Z,1.50
2023-01-12T13:35:29.469Z,2.00
2023-01-12T13:38:29.709Z,1.25
2023-01-12T13:41:15.057Z,1.40
2023-01-12T13:44:01.016Z,1.70
2023-01-12T13:46:49.989Z,1.13
2023-01-12T13:49:44.332Z,1.50
2023-01-12T13:52:34.303Z,1.55
2023-01-12T13:55:22.580Z,1.48
2023-01-12T13:58:17.708Z,3.65
2023-01-12T14:01:03.019Z,2.10
2023-01-12T14:04:10.280Z,2.20
2023-01-12T14:07:16.979Z,1.50
2023-01-12T14:10:27.740Z,2.60
2023-01-12T14:13:43.040Z,1.58
2023-01-12T14:17:04.927Z,1.58
2023-01-12T14:19:52.051Z,1.85
2023-01-12T14:22:37.978Z,1.60
2023-01-12T14:25:28.844Z,1.70
2023-01-12T14:28:22.549Z,1.52
2023-01-12T14:31:39.598Z,1.38
2023-01-12T14:34:32.865Z,1.50
2023-01-12T14:37:34.401Z,1.60
2023-01-12T14:40:30.583Z,1.73
2023-01-12T14:43:40.593Z,2.45
2023-01-12T14:46:31.374Z,3.42
2023-01-12T14:49:22.509Z,2.80
2023-01-12T14:52:16.967Z,2.67
2023-01-12T14:55:20.943Z,2.25
2023-01-12T14:58:07.349Z,2.45
2023-01-12T15:00:53.250Z,2.33
2023-01-12T15:03:43.858Z,2.70
2023-01-12T15:06:29.365Z,2.50
2023-01-12T15:09:51.027Z,2.88
2023-01-12T15:12:39.417Z,2.33
2023-01-12T15:15:48.998Z,2.20
2023-01-12T15:18:54.045Z,2.10
2023-01-12T15:22:00.555Z,2.03
2023-01-12T15:25:14.761Z,2.45
2023-01-12T15:28:00.584Z,2.50
2023-01-12T15:30:46.086Z,2.30
2023-01-12T15:33:32.174Z,2.70
2023-01-12T15:36:27.853Z,2.97
2023-01-12T15:39:14.433Z,2.90
2023-01-12T15:42:18.041Z,3.92
2023-01-12T15:45:03.715Z,2.65
2023-01-12T15:47:49.268Z,3.40
2023-01-12T15:50:38.061Z,2.63
2023-01-12T15:53:25.385Z,2.85
2023-01-12T15:56:12.898Z,2.20
2023-01-12T15:58:58.084Z,3.05
2023-01-12T16:01:47.650Z,2.22
2023-01-12T16:04:42.848Z,3.25
2023-01-12T16:07:29.036Z,3.22
2023-01-12T16:10:15.534Z,2.88
2023-01-12T16:13:02.008Z,2.30
2023-01-12T16:15:48.423Z,2.33
2023-01-12T16:18:34.301Z,1.90
2023-01-12T16:21:22.741Z,2.40
2023-01-12T16:24:09.486Z,2.40
2023-01-12T16:26:54.872Z,2.58
2023-01-12T16:29:40.376Z,2.22
2023-01-12T16:32:26.830Z,2.92
2023-01-12T16:35:15.573Z,2.15
2023-01-12T16:38:01.067Z,2.65
2023-01-12T16:40:51.289Z,2.83
2023-01-12T16:43:38.023Z,2.13
2023-01-12T16:46:23.509Z,3.08
2023-01-12T16:49:09.083Z,3.20
2023-01-12T16:51:55.372Z,2.60
2023-01-12T16:54:42.647Z,2.92
2023-01-12T16:57:28.084Z,2.25
2023-01-12T17:00:15.851Z,3.60
2023-01-12T17:03:02.648Z,4.10
2023-01-12T17:05:49.148Z,3.58
2023-01-12T17:08:34.909Z,4.78
2023-01-12T17:11:21.303Z,5.05
2023-01-12T17:14:27.609Z,4.13
2023-01-12T17:17:13.209Z,5.32
2023-01-12T17:19:58.421Z,4.32
2023-01-12T17:22:45.772Z,3.55
2023-01-12T17:25:33.797Z,5.75
2023-01-12T17:28:19.777Z,6.55
2023-01-12T17:31:14.570Z,4.95
2023-01-12T17:34:00.474Z,4.23
2023-01-12T17:36:46.269Z,5.00
2023-01-12T17:39:32.643Z,4.63
2023-01-12T17:42:43.280Z,5.95
2023-01-12T17:45:34.344Z,4.00
2023-01-12T17:48:20.085Z,4.53
2023-01-12T17:51:11.779Z,4.60
2023-01-12T17:53:58.870Z,4.20
2023-01-12T17:56:46.053Z,4.65
2023-01-12T17:59:31.846Z,4.05
2023-01-12T18:02:18.351Z,4.35
2023-01-12T18:05:06.699Z,4.43
2023-01-12T18:07:52.270Z,4.35
2023-01-12T18:10:38.257Z,4.30
2023-01-12T18:13:26.452Z,6.20
2023-01-12T18:16:13.783Z,4.57
2023-01-12T18:19:06.872Z,5.35
2023-01-12T18:21:52.530Z,5.97
2023-01-12T18:24:38.029Z,4.13
2023-01-12T18:27:26.796Z,5.00
2023-01-12T18:30:15.338Z,7.20
2023-01-12T18:33:00.991Z,5.18
2023-01-12T18:35:46.882Z,4.13
2023-01-12T18:38:44.714Z,6.47
2023-01-12T18:41:48.872Z,5.93
2023-01-12T18:44:35.739Z,6.22
2023-01-12T18:47:39.864Z,4.93
2023-01-12T18:50:43.412Z,6.05
2023-01-12T18:53:35.782Z,5.68
2023-01-12T18:56:21.826Z,6.30
2023-01-12T18:59:08.143Z,6.22
2023-01-12T19:01:53.815Z,5.70
2023-01-12T19:04:52.107Z,5.43
2023-01-12T19:07:52.137Z,5.57
2023-01-12T19:10:40.177Z,6.68
2023-01-12T19:13:43.912Z,5.75
2023-01-12T19:16:51.910Z,4.45
2023-01-12T19:19:37.890Z,4.40
2023-01-12T19:22:42.983Z,5.00
2023-01-12T19:25:47.718Z,4.78
2023-01-12T19:28:35.980Z,4.57
2023-01-12T19:31:21.703Z,4.38
2023-01-12T19:34:07.397Z,4.28
2023-01-12T19:36:52.913Z,3.75
2023-01-12T19:39:49.467Z,3.67
2023-01-12T19:42:56.419Z,5.38
2023-01-12T19:45:44.354Z,4.10
2023-01-12T19:48:35.867Z,4.18
2023-01-12T19:51:21.609Z,3.60
2023-01-12T19:54:07.096Z,5.40
2023-01-12T19:56:52.533Z,5.78
2023-01-12T19:59:38.075Z,6.93
2023-01-12T20:02:23.748Z,6.55
2023-01-12T20:05:13.217Z,7.50
2023-01-12T20:07:58.710Z,7.40
2023-01-12T20:10:56.187Z,7.28
2023-01-12T20:13:43.981Z,7.93
2023-01-12T20:16:29.951Z,8.70
2023-01-12T20:19:15.254Z,8.00
2023-01-12T20:22:01.438Z,10.90
2023-01-12T20:24:48.471Z,5.30
2023-01-12T20:27:35.601Z,4.55
2023-01-12T20:30:36.459Z,5.43
2023-01-12T20:33:24.584Z,5.05
2023-01-12T20:36:12.732Z,5.25
2023-01-12T20:38:58.975Z,5.88
2023-01-12T20:41:44.373Z,6.35
2023-01-12T20:44:29.883Z,6.47
2023-01-12T20:47:15.377Z,5.15
2023-01-12T20:50:02.081Z,3.45
2023-01-12T20:52:49.013Z,3.13
2023-01-12T20:55:35.313Z,3.10
2023-01-12T20:58:20.632Z,3.58
2023-01-12T21:01:18.870Z,2.83
2023-01-12T21:04:04.307Z,2.10
2023-01-12T21:06:49.711Z,2.40
2023-01-12T21:09:35.411Z,2.13
2023-01-12T21:12:20.821Z,2.60
2023-01-12T21:15:07.074Z,2.80
2023-01-12T21:17:54.025Z,2.45
2023-01-12T21:20:43.266Z,3.85
2023-01-12T21:23:29.473Z,3.80
2023-01-12T21:26:15.620Z,4.40
2023-01-12T21:29:01.808Z,4.07
2023-01-12T21:31:47.244Z,5.00
2023-01-12T21:34:32.663Z,4.10
2023-01-12T21:37:18.203Z,5.18
2023-01-12T21:40:06.755Z,4.82
2023-01-12T21:43:10.037Z,5.82
2023-01-12T21:45:57.321Z,5.20
2023-01-12T21:48:42.711Z,6.47
2023-01-12T21:51:28.404Z,7.00
2023-01-12T21:54:13.779Z,6.85
2023-01-12T21:56:59.585Z,6.95
2023-01-12T21:59:44.775Z,7.57
2023-01-12T22:02:31.323Z,8.20
2023-01-12T22:05:18.370Z,7.38
2023-01-12T22:08:03.718Z,7.68
2023-01-12T22:10:49.113Z,8.13
2023-01-12T22:13:35.812Z,7.22
2023-01-12T22:16:21.634Z,6.45
2023-01-12T22:19:07.071Z,7.65
2023-01-12T22:21:52.742Z,6.95
2023-01-12T22:24:38.482Z,7.35
2023-01-12T22:27:27.289Z,7.38
2023-01-12T22:30:22.158Z,7.93
2023-01-12T22:33:07.533Z,8.27
2023-01-12T22:35:53.052Z,7.22
2023-01-12T22:38:38.751Z,9.40
2023-01-12T22:41:24.879Z,9.00
2023-01-12T22:44:15.094Z,8.85
2023-01-12T22:47:00.511Z,9.27
2023-01-12T22:49:49.547Z,9.00
2023-01-12T22:52:35.028Z,7.55
2023-01-12T22:55:22.054Z,8.32
2023-01-12T22:58:08.135Z,9.27
2023-01-12T23:00:53.948Z,10.13
2023-01-12T23:03:41.157Z,7.40
2023-01-12T23:06:27.658Z,8.32
2023-01-12T23:09:12.960Z,8.20
2023-01-12T23:11:58.538Z,7.47
2023-01-12T23:14:46.270Z,8.00
2023-01-12T23:17:32.876Z,6.88
2023-01-12T23:20:18.588Z,7.07
2023-01-12T23:23:05.175Z,6.78
2023-01-12T23:25:51.725Z,6.18
2023-01-12T23:28:40.985Z,6.53
2023-01-12T23:31:31.405Z,7.22
2023-01-12T23:34:20.967Z,6.80
2023-01-12T23:37:06.368Z,6.03
2023-01-12T23:39:52.214Z,6.25
2023-01-12T23:42:37.648Z,8.45
2023-01-12T23:45:26.092Z,5.72
2023-01-12T23:48:11.501Z,7.32
2023-01-12T23:51:00.968Z,6.13
2023-01-12T23:53:47.273Z,7.15
2023-01-12T23:56:34.527Z,8.32
2023-01-12T23:59:22.900Z,6.43
